Time;durP1;ratioP1;P1;durP2;ratioP2;P2;SDS_P1;SDS_P2;PMS_P1;PMS_P2;Temp;Humidity;BMP_temperature;BMP_pressure;BME280_temperature;BME280_humidity;BME280_pressure;Samples;Min_cycle;Max_cycle;Signal;HPM_P1;HPM_P2
2022/09/04 00:01:09;;;;;;;8.73;6.47;;;;;;;14.38;64.64;98743.84;5047111;28;20365;-74
2022/09/04 00:03:46;;;;;;;11.10;6.97;;;;;;;14.35;64.75;98750.00;5047646;28;20108;-73
2022/09/04 00:06:18;;;;;;;8.48;6.55;;;;;;;14.36;64.82;98748.84;5051386;28;20025;-73
2022/09/04 00:08:59;;;;;;;8.70;6.20;;;;;;;14.37;64.63;98750.50;5052543;28;20032;-73
2022/09/04 00:11:36;;;;;;;7.68;6.40;;;;;;;14.37;64.74;98747.72;5051297;28;20048;-73
2022/09/04 00:14:41;;;;;;;9.13;6.50;;;;;;;14.39;64.85;98742.72;5047684;28;20032;-73
2022/09/04 00:17:27;;;;;;;9.30;6.38;;;;;;;14.38;64.60;98747.41;5034669;28;20049;-73
2022/09/04 00:20:27;;;;;;;8.32;6.20;;;;;;;14.41;64.70;98749.53;5051055;28;20032;-74
2022/09/04 00:23:12;;;;;;;9.07;6.47;;;;;;;14.47;65.18;98752.97;5049950;28;20110;-74
2022/09/04 00:25:49;;;;;;;10.43;6.95;;;;;;;14.52;64.99;98750.09;5050817;28;20032;-74
2022/09/04 00:28:27;;;;;;;8.93;6.57;;;;;;;14.55;65.01;98754.97;5050989;28;20021;-74
2022/09/04 00:31:06;;;;;;;9.82;6.28;;;;;;;14.57;65.03;98751.91;5050387;28;20063;-74
2022/09/04 00:33:42;;;;;;;9.65;6.93;;;;;;;14.59;64.57;98750.47;5052352;28;20608;-73
2022/09/04 00:36:10;;;;;;;10.65;7.35;;;;;;;14.61;64.75;98763.13;5050730;28;20024;-73
2022/09/04 00:38:46;;;;;;;12.13;7.50;;;;;;;14.62;64.77;98764.75;5052872;28;20480;-74
2022/09/04 00:41:41;;;;;;;9.13;6.53;;;;;;;14.63;64.89;98760.88;5048893;28;20029;-74
2022/09/04 00:44:31;;;;;;;11.10;7.80;;;;;;;14.64;64.60;98768.03;5050464;28;20052;-74
2022/09/04 00:47:08;;;;;;;10.23;6.32;;;;;;;14.66;64.65;98769.34;5050434;28;20032;-73
2022/09/04 00:49:43;;;;;;;7.22;6.20;;;;;;;14.65;64.92;98781.53;5051995;28;20021;-74
2022/09/04 00:52:23;;;;;;;7.55;6.03;;;;;;;14.65;64.76;98777.94;5050927;28;20104;-74
2022/09/04 00:55:24;;;;;;;9.88;6.68;;;;;;;14.61;64.69;98788.81;5050739;28;20516;-73
2022/09/04 00:57:52;;;;;;;8.75;6.43;;;;;;;14.55;64.52;98785.34;5027938;28;20119;-74
2022/09/04 01:00:19;;;;;;;9.02;6.18;;;;;;;14.54;64.85;98789.22;5045948;28;20072;-74
2022/09/04 01:02:48;;;;;;;8.65;6.28;;;;;;;14.57;64.56;98785.84;5051973;28;20751;-74
2022/09/04 01:05:32;;;;;;;8.35;6.35;;;;;;;14.58;64.72;98781.16;5051672;28;20033;-75
2022/09/04 01:08:33;;;;;;;7.60;5.90;;;;;;;14.60;64.62;98776.13;5050514;28;20047;-74
2022/09/04 01:11:21;;;;;;;9.23;6.07;;;;;;;14.63;64.71;98766.38;5048997;28;20021;-75
2022/09/04 01:14:11;;;;;;;8.18;6.03;;;;;;;14.62;64.74;98764.75;5048474;28;20045;-75
2022/09/04 01:16:51;;;;;;;8.80;6.82;;;;;;;14.54;64.79;98771.88;5050135;28;20025;-75
2022/09/04 01:19:38;;;;;;;10.07;6.80;;;;;;;14.51;64.67;98770.53;5052084;28;20025;-75
2022/09/04 01:22:28;;;;;;;9.48;7.00;;;;;;;14.45;64.80;98777.34;5050604;28;20086;-74
2022/09/04 01:25:21;;;;;;;10.85;6.68;;;;;;;14.42;64.84;98775.19;5050629;28;20037;-73
2022/09/04 01:27:55;;;;;;;9.13;6.47;;;;;;;14.39;64.88;98771.13;5050943;28;20025;-73
2022/09/04 01:30:21;;;;;;;9.77;7.38;;;;;;;14.35;64.80;98767.34;5049401;28;20557;-73
2022/09/04 01:33:21;;;;;;;8.60;7.00;;;;;;;14.32;64.80;98767.97;5051252;28;20025;-73
2022/09/04 01:36:01;;;;;;;8.55;6.43;;;;;;;14.29;64.98;98769.44;5050247;28;20029;-73
2022/09/04 01:38:54;;;;;;;9.10;6.78;;;;;;;14.25;64.77;98768.41;5048082;28;20083;-74
2022/09/04 01:41:29;;;;;;;8.68;6.93;;;;;;;14.25;64.90;98773.13;5048764;28;20461;-74
2022/09/04 01:43:55;;;;;;;8.98;7.20;;;;;;;14.24;65.20;98777.81;5048761;28;20497;-74
2022/09/04 01:46:20;;;;;;;8.43;6.43;;;;;;;14.23;65.02;98778.16;5051026;28;20085;-74
2022/09/04 01:49:09;;;;;;;7.45;6.53;;;;;;;14.22;65.20;98769.03;5050976;28;20037;-74
2022/09/04 01:51:40;;;;;;;8.32;6.63;;;;;;;14.24;65.15;98779.78;5050640;28;20032;-74
2022/09/04 01:54:18;;;;;;;8.45;6.55;;;;;;;14.23;65.37;98767.91;5050927;28;20044;-74
2022/09/04 01:56:51;;;;;;;9.32;6.10;;;;;;;14.25;65.44;98775.91;5049199;28;20065;-73
2022/09/04 01:59:48;;;;;;;8.73;6.28;;;;;;;14.25;65.33;98776.69;5050140;28;20179;-73
2022/09/04 02:02:29;;;;;;;7.50;6.22;;;;;;;14.28;65.13;98783.50;5049577;28;20330;-74
2022/09/04 02:05:06;;;;;;;9.05;6.70;;;;;;;14.29;65.29;98780.47;5050634;28;20037;-74
2022/09/04 02:07:43;;;;;;;8.10;6.50;;;;;;;14.31;65.32;98774.63;5052448;28;20030;-74
2022/09/04 02:10:55;;;;;;;8.75;7.45;;;;;;;14.32;65.46;98779.00;5049730;28;20039;-73
2022/09/04 02:13:32;;;;;;;9.00;6.20;;;;;;;14.36;65.16;98771.75;5039678;28;20048;-73
2022/09/04 02:16:13;;;;;;;9.35;7.25;;;;;;;14.38;65.19;98771.44;5050798;28;20119;-73
2022/09/04 02:19:00;;;;;;;8.35;6.07;;;;;;;14.38;65.17;98768.69;5050875;28;20077;-74
2022/09/04 02:21:46;;;;;;;10.15;6.88;;;;;;;14.42;65.51;98775.19;5049620;28;20029;-74
2022/09/04 02:24:38;;;;;;;8.90;6.53;;;;;;;14.38;65.34;98765.91;5048895;28;20443;-73
2022/09/04 02:27:09;;;;;;;8.95;6.75;;;;;;;14.37;65.05;98767.03;5031366;28;20075;-72
2022/09/04 02:30:10;;;;;;;7.97;6.57;;;;;;;14.31;65.17;98760.81;5050110;28;20041;-73
2022/09/04 02:32:45;;;;;;;9.00;6.70;;;;;;;14.27;64.86;98757.88;5050166;28;20491;-73
2022/09/04 02:35:25;;;;;;;9.73;7.00;;;;;;;14.23;65.26;98753.31;5050863;28;20029;-73
2022/09/04 02:38:10;;;;;;;9.52;6.85;;;;;;;14.19;65.01;98750.34;5050441;28;20032;-72
2022/09/04 02:40:50;;;;;;;8.38;6.57;;;;;;;14.18;65.37;98751.47;5050082;28;20036;-74
2022/09/04 02:43:45;;;;;;;8.07;6.43;;;;;;;14.21;65.38;98750.06;5047590;28;20048;-74
2022/09/04 02:46:22;;;;;;;9.15;7.03;;;;;;;14.21;65.36;98747.31;5049720;28;20020;-74
2022/09/04 02:49:06;;;;;;;9.38;7.65;;;;;;;14.19;65.19;98752.31;5050127;28;20071;-74
2022/09/04 02:51:37;;;;;;;8.07;7.05;;;;;;;14.20;65.58;98753.94;5049900;28;20108;-74
2022/09/04 02:54:25;;;;;;;9.20;7.13;;;;;;;14.20;65.61;98752.00;5049704;28;20143;-74
2022/09/04 02:57:16;;;;;;;8.88;6.80;;;;;;;14.17;65.52;98752.59;5047563;28;20044;-74
2022/09/04 03:00:14;;;;;;;9.30;7.03;;;;;;;14.23;65.56;98758.84;5049626;28;20032;-74
2022/09/04 03:02:50;;;;;;;7.60;6.80;;;;;;;14.26;65.73;98750.75;5048250;28;20090;-74
2022/09/04 03:05:24;;;;;;;8.70;6.47;;;;;;;14.25;65.91;98753.81;5049523;28;20033;-74
2022/09/04 03:07:55;;;;;;;9.07;7.10;;;;;;;14.24;65.84;98757.72;5049957;28;20409;-74
2022/09/04 03:10:49;;;;;;;9.73;7.00;;;;;;;14.24;65.63;98758.50;5048909;28;20028;-75
2022/09/04 03:13:39;;;;;;;7.97;6.50;;;;;;;14.25;65.57;98751.88;5027490;28;20035;-75
2022/09/04 03:16:04;;;;;;;8.65;7.10;;;;;;;14.25;65.82;98751.88;5047172;28;20469;-74
2022/09/04 03:18:50;;;;;;;7.78;6.22;;;;;;;14.23;65.62;98745.84;5048351;28;20033;-74
2022/09/04 03:21:24;;;;;;;8.10;6.15;;;;;;;14.23;65.82;98739.53;5049900;28;20071;-74
2022/09/04 03:24:14;;;;;;;8.18;6.43;;;;;;;14.21;65.76;98750.06;5048734;28;20036;-73
2022/09/04 03:26:45;;;;;;;7.03;6.32;;;;;;;14.21;65.84;98750.84;5049788;28;20056;-74
2022/09/04 03:29:24;;;;;;;6.85;6.07;;;;;;;14.18;65.60;98743.22;5049376;28;20059;-74
2022/09/04 03:32:08;;;;;;;9.48;6.68;;;;;;;14.14;65.51;98751.31;5049304;28;20024;-74
2022/09/04 03:35:09;;;;;;;9.18;5.97;;;;;;;14.12;65.72;98750.81;5049516;28;20033;-74
2022/09/04 03:37:49;;;;;;;8.90;7.07;;;;;;;14.12;65.65;98749.97;5049024;28;20025;-74
2022/09/04 03:40:31;;;;;;;7.93;6.20;;;;;;;14.07;65.78;98755.59;5044443;28;20067;-74
2022/09/04 03:43:24;;;;;;;8.00;6.57;;;;;;;14.06;65.69;98759.53;5046304;28;20448;-74
2022/09/04 03:46:14;;;;;;;7.15;6.20;;;;;;;14.03;65.76;98755.44;5048092;28;20041;-74
2022/09/04 03:49:05;;;;;;;7.32;6.55;;;;;;;14.04;65.90;98756.25;5048664;28;20405;-74
2022/09/04 03:51:33;;;;;;;8.63;6.82;;;;;;;14.01;65.70;98762.41;5049498;28;20021;-74
2022/09/04 03:54:11;;;;;;;7.57;6.43;;;;;;;13.97;65.98;98753.91;5049872;28;20074;-74
2022/09/04 03:56:42;;;;;;;7.60;6.32;;;;;;;13.95;65.98;98764.44;5049173;28;20057;-73
2022/09/04 03:59:34;;;;;;;8.85;6.88;;;;;;;13.93;66.24;98761.16;5047374;28;20389;-74
2022/09/04 04:02:13;;;;;;;8.60;6.50;;;;;;;13.93;65.75;98766.69;5049498;28;20629;-74
2022/09/04 04:04:45;;;;;;;9.48;6.35;;;;;;;13.90;66.07;98757.09;5049686;28;20511;-74
2022/09/04 04:07:27;;;;;;;8.90;6.88;;;;;;;13.91;65.98;98771.69;5047492;28;20037;-73
2022/09/04 04:10:21;;;;;;;7.97;6.55;;;;;;;13.93;66.20;98770.28;5048673;28;20040;-72
2022/09/04 04:13:11;;;;;;;9.25;7.10;;;;;;;13.96;66.28;98772.41;5037821;28;20033;-72
2022/09/04 04:15:54;;;;;;;9.10;7.10;;;;;;;13.98;65.72;98777.59;5047860;28;20021;-72
2022/09/04 04:18:52;;;;;;;9.40;6.68;;;;;;;14.00;66.44;98778.09;5049634;28;20108;-72
2022/09/04 04:21:32;;;;;;;10.45;7.25;;;;;;;14.01;66.19;98776.97;5048577;28;20029;-72
2022/09/04 04:24:27;;;;;;;9.45;7.07;;;;;;;14.02;66.41;98784.13;5049657;28;20052;-72
2022/09/04 04:27:14;;;;;;;9.30;7.10;;;;;;;14.06;66.38;98792.63;5048842;28;20055;-72
2022/09/04 04:29:49;;;;;;;9.00;7.55;;;;;;;14.07;66.51;98794.22;5047962;28;20493;-72
2022/09/04 04:32:42;;;;;;;8.45;7.13;;;;;;;14.13;66.44;98795.72;5048089;28;20033;-73
2022/09/04 04:35:14;;;;;;;8.90;7.38;;;;;;;14.18;66.31;98800.34;5048737;28;20064;-72
2022/09/04 04:37:58;;;;;;;9.07;7.68;;;;;;;14.21;66.33;98800.50;5048446;28;20025;-72
2022/09/04 04:40:31;;;;;;;9.32;7.60;;;;;;;14.24;66.44;98807.38;5048316;28;20086;-72
2022/09/04 04:43:15;;;;;;;8.05;7.10;;;;;;;14.26;66.43;98794.06;5048916;28;20045;-72
2022/09/04 04:46:07;;;;;;;9.75;7.78;;;;;;;14.30;66.48;98797.81;5049604;28;20237;-71
2022/09/04 04:49:03;;;;;;;9.48;7.50;;;;;;;14.33;66.42;98799.94;5049274;28;20424;-72
2022/09/04 04:51:31;;;;;;;9.77;8.00;;;;;;;14.36;66.47;98793.81;5051041;28;20094;-72
2022/09/04 04:54:17;;;;;;;9.52;7.32;;;;;;;14.39;66.58;98806.19;5052722;28;20029;-72
2022/09/04 04:56:52;;;;;;;8.23;7.13;;;;;;;14.41;66.71;98804.72;5052957;28;20029;-72
2022/09/04 04:59:36;;;;;;;10.23;7.13;;;;;;;14.44;66.69;98803.31;5050953;28;20029;-72
2022/09/04 05:02:15;;;;;;;8.20;7.13;;;;;;;14.48;66.40;98803.47;5050968;28;20632;-72
2022/09/04 05:05:25;;;;;;;8.95;7.10;;;;;;;14.45;66.54;98804.94;5050079;28;20033;-72
2022/09/04 05:08:16;;;;;;;10.00;7.55;;;;;;;14.45;66.39;98813.22;5010692;28;20037;-73
2022/09/04 05:10:54;;;;;;;9.00;7.00;;;;;;;14.47;66.63;98813.69;5010626;28;20444;-72
2022/09/04 05:13:31;;;;;;;8.18;7.15;;;;;;;14.48;66.43;98820.03;5042540;28;20041;-72
2022/09/04 05:16:27;;;;;;;11.02;8.23;;;;;;;14.47;66.62;98829.44;5052808;28;20063;-72
2022/09/04 05:19:17;;;;;;;9.10;7.90;;;;;;;14.46;66.75;98834.16;5052387;28;20489;-72
2022/09/04 05:22:02;;;;;;;11.27;8.13;;;;;;;14.44;66.27;98826.19;5050321;28;20060;-72
2022/09/04 05:24:35;;;;;;;8.68;7.55;;;;;;;14.44;66.58;98836.41;5051193;28;20033;-73
2022/09/04 05:27:38;;;;;;;9.13;7.28;;;;;;;14.44;66.47;98836.41;5052570;28;20033;-72
2022/09/04 05:30:32;;;;;;;9.25;7.65;;;;;;;14.47;66.48;98833.00;5052495;28;20477;-72
2022/09/04 05:33:07;;;;;;;9.13;7.78;;;;;;;14.49;66.56;98839.03;5051388;28;20032;-72
2022/09/04 05:35:58;;;;;;;8.25;7.40;;;;;;;14.49;66.88;98829.94;5049105;28;20021;-72
2022/09/04 05:38:42;;;;;;;10.30;7.30;;;;;;;14.51;66.66;98835.97;5048601;28;20448;-72
2022/09/04 05:41:29;;;;;;;8.13;6.78;;;;;;;14.53;66.47;98836.47;5051668;28;20115;-73
2022/09/04 05:44:13;;;;;;;10.30;6.80;;;;;;;14.55;66.56;98842.50;5048678;28;20061;-72
2022/09/04 05:47:03;;;;;;;9.02;6.50;;;;;;;14.52;66.63;98846.69;5052418;28;20485;-72
2022/09/04 05:49:47;;;;;;;7.90;7.00;;;;;;;14.52;66.53;98852.19;5051889;28;20035;-72
2022/09/04 05:52:21;;;;;;;8.57;6.63;;;;;;;14.54;66.63;98858.22;5051318;28;20033;-73
2022/09/04 05:55:11;;;;;;;9.57;7.18;;;;;;;14.56;66.66;98869.78;5051040;28;20045;-72
2022/09/04 05:57:39;;;;;;;8.93;7.68;;;;;;;14.58;66.88;98875.00;5048862;28;20098;-73
2022/09/04 06:00:18;;;;;;;9.88;7.47;;;;;;;14.60;66.47;98889.28;5050409;28;20172;-72
2022/09/04 06:03:08;;;;;;;10.95;7.97;;;;;;;14.64;66.93;98889.47;5048448;28;20025;-73
2022/09/04 06:06:01;;;;;;;10.85;8.65;;;;;;;14.64;66.46;98886.72;5048362;28;20036;-73
2022/09/04 06:08:54;;;;;;;10.60;9.25;;;;;;;14.67;66.83;98886.09;5051449;28;20384;-73
2022/09/04 06:11:53;;;;;;;11.23;9.18;;;;;;;14.65;66.63;98889.19;5047737;28;20435;-73
2022/09/04 06:14:18;;;;;;;11.38;9.10;;;;;;;14.63;66.54;98885.91;5047707;28;20068;-73
2022/09/04 06:17:05;;;;;;;10.93;9.07;;;;;;;14.63;66.73;98898.88;5051058;28;20029;-73
2022/09/04 06:19:52;;;;;;;10.90;8.98;;;;;;;14.64;66.54;98881.19;5048956;28;20037;-73
2022/09/04 06:22:27;;;;;;;11.23;8.95;;;;;;;14.69;66.51;98886.63;5050354;28;20092;-73
2022/09/04 06:25:16;;;;;;;11.55;9.02;;;;;;;14.71;66.71;98890.69;5049395;28;20090;-73
2022/09/04 06:28:03;;;;;;;12.25;8.75;;;;;;;14.70;66.59;98894.59;5048956;28;20038;-73
2022/09/04 06:30:51;;;;;;;11.48;9.30;;;;;;;14.68;66.79;98890.50;5050277;28;20025;-73
2022/09/04 06:33:33;;;;;;;10.60;8.75;;;;;;;14.67;66.85;98897.13;5049265;28;20032;-72
2022/09/04 06:36:14;;;;;;;13.93;10.18;;;;;;;14.66;66.77;98898.25;5050609;28;20032;-72
2022/09/04 06:38:45;;;;;;;12.05;9.73;;;;;;;14.63;66.43;98905.25;5048771;28;20025;-72
2022/09/04 06:41:13;;;;;;;10.65;8.38;;;;;;;14.63;66.87;98905.25;5049428;28;20033;-73
2022/09/04 06:44:06;;;;;;;11.77;9.07;;;;;;;14.61;66.40;98907.50;5049126;28;20139;-73
2022/09/04 06:46:50;;;;;;;10.52;8.55;;;;;;;14.61;66.85;98906.66;5047948;28;20017;-74
2022/09/04 06:49:23;;;;;;;10.23;8.63;;;;;;;14.61;66.75;98901.97;5050004;28;20037;-73
2022/09/04 06:52:31;;;;;;;9.90;8.32;;;;;;;14.59;66.58;98918.81;5049410;28;20040;-74
2022/09/04 06:55:08;;;;;;;9.13;7.65;;;;;;;14.63;66.87;98918.22;5008108;28;20034;-74
2022/09/04 06:58:10;;;;;;;8.77;7.30;;;;;;;14.65;67.00;98925.06;5046001;28;20067;-73
2022/09/04 07:01:19;;;;;;;9.23;8.02;;;;;;;14.71;66.67;98928.53;5049454;28;20047;-73
2022/09/04 07:04:16;;;;;;;10.97;9.10;;;;;;;14.76;66.78;98925.66;5026785;28;20185;-73
2022/09/04 07:06:49;;;;;;;9.77;8.63;;;;;;;14.79;66.89;98935.25;5038886;28;20041;-73
2022/09/04 07:09:21;;;;;;;10.68;8.25;;;;;;;14.84;67.08;98935.13;5051204;28;20037;-73
2022/09/04 07:12:00;;;;;;;11.35;8.82;;;;;;;14.87;67.28;98934.50;5046733;28;20052;-73
2022/09/04 07:14:56;;;;;;;11.80;8.93;;;;;;;14.88;66.99;98941.66;5049966;28;20395;-73
2022/09/04 07:17:46;;;;;;;8.73;7.50;;;;;;;14.90;67.11;98947.69;5051365;28;20286;-73
2022/09/04 07:20:25;;;;;;;15.88;10.45;;;;;;;14.95;67.26;98943.97;5050280;28;20469;-72
2022/09/04 07:22:57;;;;;;;13.38;11.98;;;;;;;14.96;66.86;98943.69;5047517;28;20539;-72
2022/09/04 07:25:39;;;;;;;9.35;8.35;;;;;;;14.99;66.81;98948.59;5048950;28;20082;-72
2022/09/04 07:28:46;;;;;;;10.20;8.05;;;;;;;15.00;66.75;98957.66;5048952;28;20265;-72
2022/09/04 07:31:25;;;;;;;8.70;7.22;;;;;;;15.02;66.99;98960.94;5046258;28;20041;-72
2022/09/04 07:33:51;;;;;;;;;;;;;;;15.03;66.75;98968.09;5048299;28;20037;-72
2022/09/04 07:36:44;;;;;;;8.23;6.07;;;;;;;15.03;67.03;98973.63;5049206;28;20343;-72
2022/09/04 07:39:37;;;;;;;8.98;6.90;;;;;;;15.01;66.69;98968.44;5046737;28;20041;-72
2022/09/04 07:42:54;;;;;;;7.72;6.47;;;;;;;15.02;67.01;98980.28;5050155;28;20035;-72
2022/09/04 07:45:29;;;;;;;9.05;6.90;;;;;;;15.06;67.04;98988.78;5008126;28;20046;-72
2022/09/04 07:48:33;;;;;;;8.32;6.93;;;;;;;15.06;67.13;98988.78;5008297;28;20080;-72
2022/09/04 07:51:16;;;;;;;10.02;7.43;;;;;;;15.05;66.79;99000.94;5041028;28;20040;-72
2022/09/04 07:54:19;;;;;;;12.75;10.77;;;;;;;15.03;66.50;98992.97;5049536;28;20543;-72
2022/09/04 07:57:09;;;;;;;11.50;8.35;;;;;;;15.05;67.11;99001.75;5050097;28;20051;-73
2022/09/04 07:59:40;;;;;;;7.97;6.78;;;;;;;15.07;66.91;99005.00;5051505;28;20031;-73
2022/09/04 08:02:19;;;;;;;7.80;6.22;;;;;;;15.09;67.06;99007.44;5049009;28;20060;-73
2022/09/04 08:05:09;;;;;;;7.38;5.95;;;;;;;15.08;66.83;99011.38;5049370;28;20032;-73
2022/09/04 08:07:37;;;;;;;;;;;;;;;15.07;66.70;99013.31;5047303;28;20044;-73
2022/09/04 08:10:13;;;;;;;9.68;7.40;;;;;;;15.02;66.87;99016.19;5046652;28;19917;-74
2022/09/04 08:12:43;;;;;;;7.80;6.80;;;;;;;15.00;66.54;99012.91;5047482;28;20040;-73
2022/09/04 08:15:09;;;;;;;;;;;;;;;15.01;66.41;99014.53;5048391;28;20040;-73
2022/09/04 08:17:53;;;;;;;7.82;7.00;;;;;;;14.98;66.59;99010.47;5049203;28;19935;-74
2022/09/04 08:20:40;;;;;;;7.88;6.85;;;;;;;15.00;66.98;99032.25;5047148;28;20018;-74
2022/09/04 08:23:27;;;;;;;9.68;6.93;;;;;;;14.99;66.83;99028.69;5046363;28;20029;-73
2022/09/04 08:26:30;;;;;;;8.98;7.00;;;;;;;15.01;67.47;99029.19;5046246;28;20064;-73
2022/09/04 08:29:31;;;;;;;8.00;6.57;;;;;;;15.05;67.61;99036.84;5050694;28;20190;-73
2022/09/04 08:32:32;;;;;;;9.35;7.63;;;;;;;15.07;67.26;99038.16;5049711;28;20604;-73
2022/09/04 08:35:23;;;;;;;11.55;8.52;;;;;;;15.07;67.37;99032.63;5053134;28;20037;-73
2022/09/04 08:38:10;;;;;;;12.60;8.90;;;;;;;15.11;67.51;99038.34;5048778;28;20055;-72
2022/09/04 08:40:47;;;;;;;14.05;11.65;;;;;;;15.12;67.56;99037.22;5052125;28;20028;-73
2022/09/04 08:43:39;;;;;;;14.60;12.35;;;;;;;15.11;67.67;99039.19;5052732;28;20049;-72
2022/09/04 08:46:13;;;;;;;10.05;8.80;;;;;;;15.08;67.99;99039.00;5052967;28;20119;-72
2022/09/04 08:49:01;;;;;;;9.85;7.43;;;;;;;15.07;67.59;99040.94;5052637;28;20025;-71
2022/09/04 08:51:49;;;;;;;9.75;7.15;;;;;;;15.08;67.77;99042.56;5050119;28;20029;-71
2022/09/04 08:54:39;;;;;;;9.73;8.05;;;;;;;15.02;68.04;99043.81;5050310;28;20047;-71
2022/09/04 08:57:23;;;;;;;;;;;;;;;14.99;67.63;99042.50;5051732;28;20044;-71
2022/09/04 09:00:10;;;;;;;18.02;13.60;;;;;;;14.95;68.09;99047.00;5051484;28;19917;-71
2022/09/04 09:03:12;;;;;;;14.75;11.70;;;;;;;14.89;67.90;99049.03;5049647;28;20348;-71
2022/09/04 09:06:20;;;;;;;11.77;9.85;;;;;;;14.88;68.37;99057.66;5049586;28;20024;-72
2022/09/04 09:09:22;;;;;;;9.40;7.78;;;;;;;14.89;68.16;99062.06;5051469;28;20040;-72
2022/09/04 09:11:50;;;;;;;8.25;6.82;;;;;;;14.92;68.64;99072.47;5048844;28;20033;-72
2022/09/04 09:14:48;;;;;;;7.95;6.82;;;;;;;14.92;68.43;99072.47;5052951;28;20040;-73
2022/09/04 09:17:38;;;;;;;8.23;7.13;;;;;;;14.94;68.62;99074.91;5051277;28;20051;-73
2022/09/04 09:20:39;;;;;;;8.35;6.90;;;;;;;14.93;68.88;99076.88;5050747;28;20036;-73
2022/09/04 09:23:16;;;;;;;9.88;7.43;;;;;;;14.96;69.16;99072.66;5016485;28;20079;-73
2022/09/04 09:26:07;;;;;;;9.60;7.28;;;;;;;14.95;68.64;99068.28;5053227;28;20556;-73
2022/09/04 09:28:58;;;;;;;76.35;35.05;;;;;;;14.93;69.04;99070.53;5054249;28;20048;-74
2022/09/04 09:31:42;;;;;;;13.52;10.00;;;;;;;14.94;69.36;99075.75;5052844;28;20029;-74
2022/09/04 09:34:29;;;;;;;17.65;13.88;;;;;;;14.95;68.95;99074.63;5048747;28;20515;-75
2022/09/04 09:37:01;;;;;;;39.90;30.58;;;;;;;14.98;69.06;99067.66;5048333;28;20025;-73
2022/09/04 09:39:33;;;;;;;32.90;27.00;;;;;;;14.98;69.19;99067.66;5050863;28;20373;-74
2022/09/04 09:42:19;;;;;;;21.05;18.67;;;;;;;15.01;69.46;99067.88;5051791;28;20063;-73
2022/09/04 09:45:21;;;;;;;18.45;14.65;;;;;;;15.06;69.79;99066.91;5052255;28;20048;-73
2022/09/04 09:48:02;;;;;;;20.25;16.20;;;;;;;15.11;69.68;99066.81;5051010;28;20119;-73
2022/09/04 09:51:05;;;;;;;20.83;16.55;;;;;;;15.14;69.53;99059.81;5050496;28;20025;-74
2022/09/04 09:53:49;;;;;;;24.95;16.27;;;;;;;15.17;69.41;99071.09;5049744;28;20218;-74
2022/09/04 09:56:46;;;;;;;22.15;16.00;;;;;;;15.22;69.73;99061.84;5048789;28;20070;-74
2022/09/04 09:59:42;;;;;;;25.23;16.85;;;;;;;15.29;69.69;99069.69;5048872;28;20029;-74
2022/09/04 10:02:36;;;;;;;30.75;20.73;;;;;;;15.31;69.77;99068.28;5048413;28;20028;-74
2022/09/04 10:05:30;;;;;;;21.10;17.05;;;;;;;15.36;69.88;99064.56;5047937;28;20051;-75
2022/09/04 10:07:55;;;;;;;23.08;20.27;;;;;;;15.40;69.82;99071.09;5046972;28;20033;-75
2022/09/04 10:10:56;;;;;;;17.20;14.35;;;;;;;15.42;70.04;99071.59;5049155;28;20108;-73
2022/09/04 10:13:43;;;;;;;15.68;11.77;;;;;;;15.47;70.37;99067.91;5046188;28;20025;-74
2022/09/04 10:16:11;;;;;;;13.75;11.45;;;;;;;15.52;70.35;99069.72;5051196;28;20091;-74
2022/09/04 10:19:35;;;;;;;14.13;10.85;;;;;;;15.61;70.22;99070.59;5048390;28;20048;-74
2022/09/04 10:22:41;;;;;;;21.90;16.92;;;;;;;15.73;70.22;99073.59;5043892;28;20696;-73
2022/09/04 10:25:25;;;;;;;20.95;16.98;;;;;;;15.85;70.59;99073.03;5051308;28;20028;-75
2022/09/04 10:28:12;;;;;;;19.98;17.40;;;;;;;15.93;70.77;99074.25;5049534;28;20143;-75
2022/09/04 10:30:40;;;;;;;25.33;18.88;;;;;;;16.01;70.81;99070.72;5045794;28;20029;-74
2022/09/04 10:33:41;;;;;;;28.55;21.42;;;;;;;16.14;70.95;99073.69;5049006;28;20107;-76
2022/09/04 10:36:18;;;;;;;22.90;19.05;;;;;;;16.30;70.81;99068.56;5026266;28;20037;-77
2022/09/04 10:42:29;;;;;;;20.58;17.25;;;;;;;16.58;70.75;99069.13;5049156;28;20174;-76
2022/09/04 10:45:04;;;;;;;21.20;16.73;;;;;;;16.73;70.83;99076.16;5044449;28;20037;-78
2022/09/04 10:47:58;;;;;;;19.77;14.80;;;;;;;16.84;70.70;99086.94;5047284;28;20552;-77
2022/09/04 10:50:55;;;;;;;18.40;13.70;;;;;;;16.92;70.82;99089.72;5047927;28;20455;-77
2022/09/04 10:53:50;;;;;;;17.40;13.80;;;;;;;17.00;70.66;99093.69;5048948;28;20021;-76
2022/09/04 10:56:34;;;;;;;14.90;11.60;;;;;;;17.08;70.36;99086.53;5048521;28;20037;-77
2022/09/04 10:59:24;;;;;;;14.88;12.00;;;;;;;17.14;70.04;99090.78;5048417;28;20021;-77
2022/09/04 11:02:11;;;;;;;16.20;13.60;;;;;;;17.18;70.10;99089.00;5047325;28;20033;-77
2022/09/04 11:04:58;;;;;;;14.57;11.98;;;;;;;17.23;70.02;99088.00;5048807;28;20037;-77
2022/09/04 11:07:47;;;;;;;16.80;12.90;;;;;;;17.29;70.01;99085.91;5049970;28;20024;-76
2022/09/04 11:10:46;;;;;;;14.48;12.15;;;;;;;17.34;70.03;99080.16;5049432;28;20024;-77
2022/09/04 11:13:42;;;;;;;13.48;11.32;;;;;;;17.40;69.99;99087.19;5049084;28;20096;-77
2022/09/04 11:16:41;;;;;;;13.77;11.90;;;;;;;17.52;70.09;99078.25;5048674;28;20041;-77
2022/09/04 11:19:44;;;;;;;14.13;11.60;;;;;;;17.61;70.08;99075.44;5048753;28;20039;-78
2022/09/04 11:22:34;;;;;;;15.82;12.35;;;;;;;17.67;70.20;99086.03;5048066;28;20087;-77
2022/09/04 11:25:21;;;;;;;16.92;11.38;;;;;;;17.81;70.32;99083.06;5049190;28;20032;-77
2022/09/04 11:28:11;;;;;;;15.70;11.73;;;;;;;17.98;70.27;99084.97;5049594;28;20052;-77
2022/09/04 11:31:05;;;;;;;18.50;13.73;;;;;;;18.11;70.44;99085.16;5045616;28;20026;-77
2022/09/04 11:33:50;;;;;;;14.02;10.88;;;;;;;18.24;70.25;99095.25;5044845;28;20037;-76
2022/09/04 11:36:24;;;;;;;15.85;12.77;;;;;;;18.36;70.06;99088.97;5046300;28;20025;-77
2022/09/04 11:39:12;;;;;;;15.80;13.95;;;;;;;18.47;69.83;99099.72;5049161;28;20029;-77
2022/09/04 11:41:49;;;;;;;13.50;10.35;;;;;;;18.56;69.73;99100.47;5036648;28;20040;-77
2022/09/04 11:44:33;;;;;;;11.35;9.40;;;;;;;18.59;69.07;99097.03;5051132;28;20061;-77
2022/09/04 11:47:17;;;;;;;12.82;9.75;;;;;;;18.67;69.12;99093.41;5047757;28;20108;-76
2022/09/04 11:50:05;;;;;;;16.00;12.15;;;;;;;18.79;69.05;99097.44;5048615;28;20025;-76
2022/09/04 11:52:54;;;;;;;14.15;10.95;;;;;;;18.88;68.83;99101.78;5043292;28;20044;-75
2022/09/04 11:55:38;;;;;;;13.18;10.65;;;;;;;19.00;68.67;99089.97;5050701;28;20070;-75
2022/09/04 11:58:28;;;;;;;13.10;9.52;;;;;;;19.09;68.23;99098.25;5051961;28;20606;-74
2022/09/04 12:01:14;;;;;;;13.52;10.88;;;;;;;19.13;67.97;99102.00;5050309;28;20032;-74
2022/09/04 12:04:05;;;;;;;14.98;11.32;;;;;;;19.18;67.63;99096.22;5051454;28;20039;-75
2022/09/04 12:06:58;;;;;;;14.77;11.55;;;;;;;19.25;67.35;99098.47;5052179;28;20024;-76
2022/09/04 12:09:47;;;;;;;12.77;11.43;;;;;;;19.31;67.11;99099.91;5042340;28;20068;-74
2022/09/04 12:12:40;;;;;;;11.80;9.85;;;;;;;19.34;67.25;99092.84;5039527;28;21301;-74
2022/09/04 12:15:34;;;;;;;10.85;8.45;;;;;;;19.33;66.98;99086.47;5045321;28;20056;-76
2022/09/04 12:18:11;;;;;;;11.07;8.63;;;;;;;19.39;66.70;99089.03;5049276;28;20044;-76
2022/09/04 12:20:54;;;;;;;11.32;8.60;;;;;;;19.43;66.58;99082.44;5055308;28;20495;-76
2022/09/04 12:23:41;;;;;;;12.00;9.15;;;;;;;19.46;66.46;99086.50;5052146;28;20044;-77
2022/09/04 12:26:21;;;;;;;16.02;12.63;;;;;;;19.55;66.44;99080.88;5055936;28;20036;-76
2022/09/04 12:28:50;;;;;;;9.63;8.60;;;;;;;19.61;66.23;99083.09;5052419;28;20025;-77
2022/09/04 12:31:18;;;;;;;9.98;7.30;;;;;;;19.71;66.42;99083.84;5052163;28;20025;-76
2022/09/04 12:33:43;;;;;;;8.02;7.18;;;;;;;19.81;66.12;99071.47;5051020;28;20086;-76
2022/09/04 12:36:46;;;;;;;10.80;8.82;;;;;;;19.86;66.21;99074.84;5054915;28;20029;-76
2022/09/04 12:39:22;;;;;;;10.82;9.35;;;;;;;19.97;65.89;99072.44;5053877;28;20041;-76
2022/09/04 12:41:59;;;;;;;9.70;8.60;;;;;;;20.07;65.63;99074.78;5048460;28;20040;-76
2022/09/04 12:44:37;;;;;;;13.88;11.45;;;;;;;20.19;66.07;99071.22;5055192;28;20044;-76
2022/09/04 12:47:21;;;;;;;10.23;8.68;;;;;;;20.31;65.80;99070.44;5054082;28;20032;-77
2022/09/04 12:50:31;;;;;;;10.00;8.20;;;;;;;20.41;65.39;99069.16;5050337;28;20104;-77
2022/09/04 12:53:10;;;;;;;10.50;9.40;;;;;;;20.55;65.30;99073.59;5013909;28;20048;-77
2022/09/04 12:55:57;;;;;;;9.67;7.63;;;;;;;20.67;64.77;99073.56;5007885;28;20522;-77